createdAt,value
2023-03-16T00:00:09.695Z,89.78
2023-03-16T00:02:36.210Z,90.90
2023-03-16T00:05:02.767Z,91.36
2023-03-16T00:07:29.447Z,91.37
2023-03-16T00:09:56.410Z,90.73
2023-03-16T00:12:22.861Z,90.92
2023-03-16T00:14:49.701Z,90.75
2023-03-16T00:17:21.501Z,91.08
2023-03-16T00:19:56.052Z,90.90
2023-03-16T00:22:27.444Z,90.74
2023-03-16T00:24:54.691Z,91.74
2023-03-16T00:27:22.859Z,91.53
2023-03-16T00:29:55.431Z,91.27
2023-03-16T00:32:28.125Z,90.74
2023-03-16T00:34:54.655Z,91.72
2023-03-16T00:37:23.324Z,93.40
2023-03-16T00:39:50.456Z,93.25
2023-03-16T00:42:18.605Z,91.94
2023-03-16T00:44:45.639Z,91.26
2023-03-16T00:47:15.562Z,91.16
2023-03-16T00:49:43.767Z,91.77
2023-03-16T00:52:14.620Z,91.75
2023-03-16T00:54:45.801Z,91.37
2023-03-16T00:57:14.668Z,91.59
2023-03-16T00:59:42.536Z,93.16
2023-03-16T01:02:10.014Z,94.19
2023-03-16T01:04:37.240Z,95.38
2023-03-16T01:07:04.968Z,95.79
2023-03-16T01:09:36.757Z,94.32
2023-03-16T01:12:06.174Z,93.72
2023-03-16T01:14:34.844Z,93.18
2023-03-16T01:17:02.801Z,93.19
2023-03-16T01:19:29.924Z,93.73
2023-03-16T01:21:56.541Z,94.87
2023-03-16T01:24:24.282Z,94.16
2023-03-16T01:26:50.807Z,93.69
2023-03-16T01:29:17.284Z,92.72
2023-03-16T01:31:43.761Z,95.12
2023-03-16T01:34:16.487Z,94.76
2023-03-16T01:36:44.316Z,94.52
2023-03-16T01:39:12.229Z,94.49
2023-03-16T01:41:39.779Z,94.81
2023-03-16T01:44:06.287Z,96.16
2023-03-16T01:46:32.927Z,95.48
2023-03-16T01:49:07.025Z,94.34
2023-03-16T01:51:36.598Z,95.57
2023-03-16T01:54:08.285Z,96.36
2023-03-16T01:56:40.062Z,97.23
2023-03-16T01:59:12.043Z,97.75
2023-03-16T02:01:38.777Z,97.39
2023-03-16T02:04:17.861Z,98.11
2023-03-16T02:06:45.195Z,98.38
2023-03-16T02:09:12.784Z,98.17
2023-03-16T02:11:39.316Z,99.29
2023-03-16T02:14:10.266Z,99.26
2023-03-16T02:16:37.136Z,98.60
2023-03-16T02:19:04.134Z,98.08
2023-03-16T02:21:35.578Z,99.06
2023-03-16T02:24:03.184Z,98.93
2023-03-16T02:26:51.980Z,98.24
2023-03-16T02:29:29.621Z,97.90
2023-03-16T02:31:57.109Z,98.54
2023-03-16T02:34:24.286Z,98.04
2023-03-16T02:36:52.265Z,99.83
2023-03-16T02:39:18.961Z,98.92
2023-03-16T02:41:46.143Z,99.64
2023-03-16T02:44:16.127Z,98.35
2023-03-16T02:46:44.211Z,98.59
2023-03-16T02:49:13.337Z,99.79
2023-03-16T02:51:40.077Z,100.00
2023-03-16T02:54:06.583Z,100.00
2023-03-16T02:56:33.132Z,100.00
2023-03-16T02:58:59.660Z,100.00
2023-03-16T03:01:26.209Z,99.82
2023-03-16T03:03:52.783Z,99.56
2023-03-16T03:06:19.350Z,99.47
2023-03-16T03:08:45.854Z,98.18
2023-03-16T03:11:12.321Z,97.20
2023-03-16T03:13:39.256Z,97.17
2023-03-16T03:16:06.106Z,96.08
2023-03-16T03:18:32.610Z,96.17
2023-03-16T03:20:59.098Z,95.90
2023-03-16T03:23:25.704Z,97.58
2023-03-16T03:25:52.159Z,99.14
2023-03-16T03:28:18.679Z,100.00
2023-03-16T03:30:45.182Z,100.00
2023-03-16T03:33:12.975Z,100.00
2023-03-16T03:35:39.556Z,100.00
2023-03-16T03:38:08.103Z,99.92
2023-03-16T03:40:34.835Z,98.84
2023-03-16T03:43:01.513Z,98.24
2023-03-16T03:45:28.120Z,99.48
2023-03-16T03:47:56.073Z,100.00
2023-03-16T03:50:22.752Z,99.43
2023-03-16T03:52:49.390Z,98.22
2023-03-16T03:55:15.864Z,98.43
2023-03-16T03:57:42.319Z,97.20
2023-03-16T04:00:13.706Z,98.69
2023-03-16T04:02:40.355Z,98.63
2023-03-16T04:05:07.742Z,98.51
2023-03-16T04:07:34.660Z,99.02
2023-03-16T04:10:01.143Z,100.00
2023-03-16T04:12:27.621Z,100.00
2023-03-16T04:14:54.095Z,100.00
2023-03-16T04:17:20.576Z,100.00
2023-03-16T04:19:47.646Z,100.00
2023-03-16T04:22:14.173Z,100.00
2023-03-16T04:24:43.105Z,99.90
2023-03-16T04:27:11.993Z,100.00
2023-03-16T04:29:39.106Z,100.00
2023-03-16T04:32:08.491Z,100.00
2023-03-16T04:34:34.980Z,100.00
2023-03-16T04:37:02.350Z,100.00
2023-03-16T04:39:28.930Z,100.00
2023-03-16T04:41:55.495Z,100.00
2023-03-16T04:44:21.973Z,100.00
2023-03-16T04:46:48.589Z,100.00
2023-03-16T04:49:15.233Z,100.00
2023-03-16T04:51:42.583Z,100.00
2023-03-16T04:54:09.273Z,100.00
2023-03-16T04:56:35.808Z,100.00
2023-03-16T04:59:02.380Z,100.00
2023-03-16T05:01:28.884Z,100.00
2023-03-16T05:03:55.953Z,100.00
2023-03-16T05:06:23.210Z,100.00
2023-03-16T05:08:49.707Z,100.00
2023-03-16T05:11:16.247Z,100.00
2023-03-16T05:13:42.934Z,100.00
2023-03-16T05:16:09.478Z,100.00
2023-03-16T05:18:36.198Z,100.00
2023-03-16T05:21:02.735Z,100.00
2023-03-16T05:23:29.276Z,100.00
2023-03-16T05:25:59.734Z,100.00
2023-03-16T05:28:27.165Z,100.00
2023-03-16T05:30:54.038Z,100.00
2023-03-16T05:33:21.568Z,100.00
2023-03-16T05:35:48.225Z,100.00
2023-03-16T05:38:15.868Z,100.00
2023-03-16T05:40:42.370Z,100.00
2023-03-16T05:43:11.569Z,100.00
2023-03-16T05:45:39.843Z,100.00
2023-03-16T05:48:06.460Z,100.00
2023-03-16T05:50:32.999Z,100.00
2023-03-16T05:52:59.509Z,100.00
2023-03-16T05:55:26.192Z,100.00
2023-03-16T05:57:52.918Z,100.00
2023-03-16T06:00:20.435Z,100.00
2023-03-16T06:02:49.061Z,100.00
2023-03-16T06:05:17.368Z,100.00
2023-03-16T06:07:44.369Z,100.00
2023-03-16T06:10:11.796Z,100.00
2023-03-16T06:12:38.592Z,100.00
2023-03-16T06:15:10.363Z,100.00
2023-03-16T06:17:37.728Z,100.00
2023-03-16T06:20:10.528Z,100.00
2023-03-16T06:22:46.074Z,100.00
2023-03-16T06:25:13.504Z,100.00
2023-03-16T06:27:40.155Z,100.00
2023-03-16T06:30:08.725Z,100.00
2023-03-16T06:32:36.236Z,100.00
2023-03-16T06:35:03.572Z,100.00
2023-03-16T06:37:31.105Z,100.00
2023-03-16T06:39:57.621Z,100.00
2023-03-16T06:42:24.228Z,100.00
2023-03-16T06:44:52.238Z,99.86
2023-03-16T06:47:19.267Z,99.67
2023-03-16T06:49:46.949Z,99.76
2023-03-16T06:52:14.081Z,99.11
2023-03-16T06:54:41.386Z,98.87
2023-03-16T06:57:08.405Z,98.35
2023-03-16T06:59:35.191Z,98.67
2023-03-16T07:02:01.983Z,97.66
2023-03-16T07:04:28.725Z,97.56
2023-03-16T07:06:55.261Z,98.00
2023-03-16T07:09:22.035Z,98.51
2023-03-16T07:11:48.490Z,97.71
2023-03-16T07:14:15.042Z,98.03
2023-03-16T07:16:41.685Z,96.38
2023-03-16T07:19:08.209Z,94.91
2023-03-16T07:21:39.896Z,94.97
2023-03-16T07:24:07.933Z,94.32
2023-03-16T07:26:34.439Z,94.03
2023-03-16T07:29:01.103Z,93.25
2023-03-16T07:31:28.787Z,93.60
2023-03-16T07:33:55.398Z,93.25
2023-03-16T07:36:21.870Z,93.38
2023-03-16T07:38:48.422Z,93.57
2023-03-16T07:41:14.915Z,93.11
2023-03-16T07:43:41.405Z,92.67
2023-03-16T07:46:07.919Z,91.88
2023-03-16T07:48:34.448Z,91.44
2023-03-16T07:51:00.956Z,91.28
2023-03-16T07:53:27.460Z,91.32
2023-03-16T07:55:53.904Z,91.79
2023-03-16T07:58:20.392Z,91.41
2023-03-16T08:00:46.957Z,90.36
2023-03-16T08:03:13.850Z,89.96
2023-03-16T08:05:40.499Z,90.43
2023-03-16T08:08:09.656Z,90.02
2023-03-16T08:10:36.293Z,89.25
2023-03-16T08:13:04.703Z,88.44
2023-03-16T08:15:33.893Z,88.57
2023-03-16T08:18:02.481Z,88.60
2023-03-16T08:20:29.798Z,88.97
2023-03-16T08:22:56.523Z,89.62
2023-03-16T08:25:23.095Z,89.06
2023-03-16T08:27:49.589Z,88.04
2023-03-16T08:30:16.951Z,88.26
2023-03-16T08:32:43.493Z,87.53
2023-03-16T08:35:16.752Z,87.12
2023-03-16T08:37:43.716Z,87.90
2023-03-16T08:40:17.022Z,87.26
2023-03-16T08:42:44.890Z,86.07
2023-03-16T08:45:14.135Z,86.88
2023-03-16T08:47:41.477Z,85.69
2023-03-16T08:50:09.327Z,88.94
2023-03-16T08:52:38.965Z,88.89
2023-03-16T08:55:07.085Z,86.82
2023-03-16T08:57:34.167Z,86.21
2023-03-16T09:00:01.427Z,85.20
2023-03-16T09:02:28.079Z,84.80
2023-03-16T09:04:54.759Z,84.69
2023-03-16T09:07:21.922Z,84.18
2023-03-16T09:09:48.445Z,83.23
2023-03-16T09:12:14.988Z,83.22
2023-03-16T09:14:41.437Z,82.74
2023-03-16T09:17:08.017Z,81.12
2023-03-16T09:19:50.188Z,82.34
2023-03-16T09:22:19.581Z,81.40
2023-03-16T09:24:46.364Z,79.72
2023-03-16T09:27:12.996Z,80.32
2023-03-16T09:29:41.006Z,80.55
2023-03-16T09:32:08.521Z,80.00
2023-03-16T09:34:35.005Z,81.29
2023-03-16T09:37:01.561Z,80.31
2023-03-16T09:39:28.184Z,79.55
2023-03-16T09:42:09.366Z,79.25
2023-03-16T09:44:57.178Z,78.44
2023-03-16T09:47:28.810Z,79.07
2023-03-16T09:49:57.464Z,78.62
2023-03-16T09:52:51.504Z,78.74
2023-03-16T09:55:17.861Z,77.35
2023-03-16T09:57:45.682Z,78.90
2023-03-16T10:00:21.972Z,78.46
2023-03-16T10:03:06.930Z,77.02
2023-03-16T10:05:34.168Z,77.56
2023-03-16T10:08:06.607Z,76.91
2023-03-16T10:10:57.783Z,74.38
2023-03-16T10:13:31.973Z,74.97
2023-03-16T10:16:02.673Z,75.53
2023-03-16T10:18:33.105Z,75.35
2023-03-16T10:20:59.999Z,76.25
2023-03-16T10:23:26.931Z,76.06
2023-03-16T10:25:54.845Z,75.82
2023-03-16T10:28:23.551Z,74.45
2023-03-16T10:30:52.592Z,76.03
2023-03-16T10:33:31.435Z,75.70
2023-03-16T10:35:57.934Z,75.75
2023-03-16T10:38:38.782Z,76.35
2023-03-16T10:41:21.383Z,77.40
2023-03-16T10:43:55.566Z,76.86
2023-03-16T10:46:22.734Z,76.75
2023-03-16T10:49:00.374Z,75.52
2023-03-16T10:51:29.803Z,74.77
2023-03-16T10:54:07.496Z,75.30
2023-03-16T10:56:37.477Z,75.12
2023-03-16T10:59:28.211Z,74.58
2023-03-16T11:01:54.809Z,75.06
2023-03-16T11:04:21.373Z,74.62
2023-03-16T11:06:56.592Z,74.74
2023-03-16T11:09:31.981Z,75.00
2023-03-16T11:11:59.190Z,74.67
2023-03-16T11:14:28.228Z,74.18
2023-03-16T11:17:08.579Z,73.47
2023-03-16T11:19:44.023Z,72.66
2023-03-16T11:22:14.213Z,73.77
2023-03-16T11:25:08.112Z,73.75
2023-03-16T11:27:43.508Z,71.88
2023-03-16T11:30:13.714Z,69.40
2023-03-16T11:32:41.840Z,65.92
2023-03-16T11:35:19.442Z,66.64
2023-03-16T11:38:37.816Z,65.68
2023-03-16T11:41:07.583Z,66.12
2023-03-16T11:43:50.240Z,67.20
2023-03-16T11:46:20.658Z,64.82
2023-03-16T11:48:49.641Z,66.81
2023-03-16T11:51:34.442Z,67.08
2023-03-16T11:54:11.254Z,66.22
2023-03-16T11:56:43.015Z,66.48
2023-03-16T12:00:08.433Z,67.78
2023-03-16T12:03:01.193Z,68.77
2023-03-16T12:06:07.821Z,69.99
2023-03-16T12:08:55.821Z,69.46
2023-03-16T12:11:28.843Z,68.83
2023-03-16T12:14:04.351Z,65.31
2023-03-16T12:16:48.382Z,63.94
2023-03-16T12:19:21.970Z,64.38
2023-03-16T12:21:58.360Z,65.54
2023-03-16T12:24:28.485Z,69.17
2023-03-16T12:26:55.084Z,78.11
2023-03-16T12:29:33.494Z,84.49
2023-03-16T12:32:12.249Z,89.46
2023-03-16T12:34:53.328Z,93.53
2023-03-16T12:37:36.217Z,94.00
2023-03-16T12:40:09.182Z,96.59
2023-03-16T12:43:01.415Z,97.11
2023-03-16T12:45:41.157Z,96.29
2023-03-16T12:48:10.842Z,96.21
2023-03-16T12:50:49.189Z,96.80
2023-03-16T12:53:40.053Z,95.47
2023-03-16T12:56:12.016Z,95.38
2023-03-16T12:59:00.224Z,93.04
2023-03-16T13:01:37.475Z,95.65
2023-03-16T13:04:30.671Z,95.57
2023-03-16T13:07:09.202Z,96.84
2023-03-16T13:09:38.752Z,98.41
2023-03-16T13:12:06.644Z,97.23
2023-03-16T13:14:41.799Z,97.12
2023-03-16T13:17:17.238Z,97.36
2023-03-16T13:19:46.690Z,96.89
2023-03-16T13:22:22.307Z,92.41
2023-03-16T13:24:59.756Z,91.80
2023-03-16T13:27:29.314Z,90.04
2023-03-16T13:30:02.028Z,89.72
2023-03-16T13:32:33.294Z,89.49
2023-03-16T13:35:02.210Z,89.97
2023-03-16T13:37:29.943Z,89.87
2023-03-16T13:39:58.515Z,91.04
2023-03-16T13:42:27.582Z,89.37
2023-03-16T13:44:56.669Z,88.13
2023-03-16T13:47:26.437Z,84.79
2023-03-16T13:49:58.989Z,84.26
2023-03-16T13:52:31.700Z,82.53
2023-03-16T13:54:59.420Z,81.36
2023-03-16T13:57:28.448Z,77.51
2023-03-16T14:00:18.121Z,81.07
2023-03-16T14:02:45.290Z,80.48
2023-03-16T14:05:18.654Z,78.43
2023-03-16T14:07:47.435Z,77.31
2023-03-16T14:10:17.437Z,78.41
2023-03-16T14:12:54.719Z,80.15
2023-03-16T14:15:23.793Z,81.90
2023-03-16T14:17:50.888Z,82.15
2023-03-16T14:20:23.257Z,82.40
2023-03-16T14:22:53.732Z,82.97
2023-03-16T14:25:26.983Z,83.61
2023-03-16T14:28:02.082Z,83.59
2023-03-16T14:30:30.405Z,83.38
2023-03-16T14:33:05.818Z,84.92
2023-03-16T14:35:54.747Z,84.03
2023-03-16T14:38:27.139Z,84.71
2023-03-16T14:40:56.592Z,82.80
2023-03-16T14:43:29.252Z,83.63
2023-03-16T14:45:55.771Z,84.35
2023-03-16T14:48:22.346Z,83.75
2023-03-16T14:50:54.602Z,84.14
2023-03-16T14:53:21.475Z,83.32
2023-03-16T14:55:48.240Z,82.89
2023-03-16T14:58:14.786Z,82.73
2023-03-16T15:00:52.717Z,85.07
2023-03-16T15:03:32.994Z,85.02
2023-03-16T15:06:00.292Z,85.42
2023-03-16T15:08:31.458Z,86.88
2023-03-16T15:11:00.802Z,88.03
2023-03-16T15:13:39.712Z,87.48
2023-03-16T15:16:06.813Z,86.06
2023-03-16T15:18:33.758Z,85.16
2023-03-16T15:21:01.947Z,83.54
2023-03-16T15:23:29.228Z,84.83
2023-03-16T15:26:00.210Z,86.64
2023-03-16T15:28:28.156Z,87.43
2023-03-16T15:30:57.457Z,89.28
2023-03-16T15:33:24.772Z,88.27
2023-03-16T15:35:52.916Z,88.87
2023-03-16T15:38:32.993Z,88.64
2023-03-16T15:40:59.841Z,89.03
2023-03-16T15:43:28.923Z,88.43
2023-03-16T15:45:57.349Z,87.63
2023-03-16T15:48:27.095Z,87.41
2023-03-16T15:51:08.443Z,86.16
2023-03-16T15:53:47.877Z,89.06
2023-03-16T15:56:19.804Z,88.78
2023-03-16T15:58:46.870Z,89.49
2023-03-16T16:01:24.168Z,88.78
2023-03-16T16:03:51.759Z,89.55
2023-03-16T16:06:18.512Z,89.76
2023-03-16T16:08:45.353Z,90.45
2023-03-16T16:11:30.958Z,89.95
2023-03-16T16:13:58.538Z,89.54
2023-03-16T16:16:27.283Z,89.70
2023-03-16T16:18:54.647Z,89.32
2023-03-16T16:21:26.724Z,88.48
2023-03-16T16:23:53.226Z,89.12
2023-03-16T16:26:27.857Z,90.00
2023-03-16T16:28:58.860Z,89.62
2023-03-16T16:31:26.213Z,90.18
2023-03-16T16:33:52.892Z,89.93
2023-03-16T16:36:22.841Z,92.18
2023-03-16T16:38:50.077Z,89.39
2023-03-16T16:41:25.647Z,96.80
2023-03-16T16:43:53.165Z,91.43
2023-03-16T16:46:22.395Z,89.97
2023-03-16T16:48:58.989Z,89.59
2023-03-16T16:51:28.849Z,90.52
2023-03-16T16:53:57.471Z,91.19
2023-03-16T16:56:33.169Z,91.33
2023-03-16T16:59:02.656Z,92.23
2023-03-16T17:01:32.972Z,92.45
2023-03-16T17:03:59.748Z,95.92
2023-03-16T17:06:27.839Z,94.99
2023-03-16T17:08:57.691Z,94.35
2023-03-16T17:11:30.062Z,93.15
2023-03-16T17:13:58.907Z,94.17
2023-03-16T17:16:28.635Z,95.11
2023-03-16T17:18:55.589Z,95.90
2023-03-16T17:21:25.109Z,97.33
2023-03-16T17:23:52.808Z,97.72
2023-03-16T17:26:23.535Z,95.87
2023-03-16T17:28:56.774Z,97.07
2023-03-16T17:31:25.976Z,96.52
2023-03-16T17:33:53.071Z,99.05
2023-03-16T17:36:20.892Z,97.17
2023-03-16T17:38:47.831Z,97.93
2023-03-16T17:41:23.860Z,97.00
2023-03-16T17:43:51.672Z,97.00
2023-03-16T17:46:20.189Z,97.33
2023-03-16T17:48:47.687Z,99.44
2023-03-16T17:51:17.963Z,96.58
2023-03-16T17:53:44.930Z,96.71
2023-03-16T17:56:39.557Z,96.05
2023-03-16T17:59:27.503Z,96.74
2023-03-16T18:01:55.349Z,97.04
2023-03-16T18:04:24.651Z,97.79
2023-03-16T18:06:51.569Z,98.65
2023-03-16T18:09:19.620Z,98.76
2023-03-16T18:11:48.084Z,98.95
2023-03-16T18:14:35.030Z,99.66
2023-03-16T18:17:22.654Z,99.45
2023-03-16T18:19:49.736Z,97.68
2023-03-16T18:22:20.264Z,97.85
2023-03-16T18:24:48.888Z,99.62
2023-03-16T18:27:15.848Z,100.00
2023-03-16T18:29:42.444Z,100.00
2023-03-16T18:32:21.791Z,100.00
2023-03-16T18:34:48.498Z,100.00
2023-03-16T18:37:21.735Z,100.00
2023-03-16T18:39:48.822Z,100.00
2023-03-16T18:42:22.807Z,100.00
2023-03-16T18:44:49.620Z,99.89
2023-03-16T18:47:18.663Z,100.00
2023-03-16T18:49:48.866Z,100.00
2023-03-16T18:52:21.110Z,100.00
2023-03-16T18:54:48.201Z,100.00
2023-03-16T18:57:20.082Z,100.00
2023-03-16T18:59:47.141Z,100.00
2023-03-16T19:02:35.228Z,100.00
2023-03-16T19:05:04.418Z,100.00
2023-03-16T19:07:35.855Z,100.00
2023-03-16T19:10:08.583Z,100.00
2023-03-16T19:12:35.232Z,100.00
2023-03-16T19:15:01.735Z,100.00
2023-03-16T19:17:28.213Z,100.00
2023-03-16T19:19:54.686Z,100.00
2023-03-16T19:22:36.055Z,100.00
2023-03-16T19:25:05.899Z,99.62
2023-03-16T19:27:38.297Z,97.12
2023-03-16T19:30:05.484Z,100.00
2023-03-16T19:32:32.000Z,100.00
2023-03-16T19:34:58.557Z,100.00
2023-03-16T19:37:26.631Z,100.00
2023-03-16T19:39:53.447Z,100.00
2023-03-16T19:42:28.808Z,100.00
2023-03-16T19:44:55.310Z,100.00
2023-03-16T19:47:25.981Z,100.00
2023-03-16T19:49:52.801Z,100.00
2023-03-16T19:52:19.309Z,100.00
2023-03-16T19:54:46.076Z,100.00
2023-03-16T19:57:17.886Z,100.00
2023-03-16T19:59:46.656Z,99.07
2023-03-16T20:02:40.328Z,98.79
2023-03-16T20:05:07.789Z,99.62
2023-03-16T20:07:38.098Z,99.00
2023-03-16T20:10:06.210Z,99.32
2023-03-16T20:12:32.876Z,98.90
2023-03-16T20:15:02.176Z,99.45
2023-03-16T20:17:30.093Z,98.52
2023-03-16T20:19:57.635Z,100.00
2023-03-16T20:22:27.189Z,98.50
2023-03-16T20:24:54.515Z,99.58
2023-03-16T20:27:22.674Z,99.60
2023-03-16T20:29:49.960Z,100.00
2023-03-16T20:32:24.866Z,100.00
2023-03-16T20:34:52.567Z,100.00
2023-03-16T20:37:29.917Z,100.00
2023-03-16T20:40:00.241Z,100.00
2023-03-16T20:42:31.940Z,100.00
2023-03-16T20:44:58.920Z,100.00
2023-03-16T20:47:25.686Z,100.00
2023-03-16T20:49:53.737Z,100.00
2023-03-16T20:52:22.538Z,99.68
2023-03-16T20:54:49.428Z,99.51
2023-03-16T20:57:22.651Z,100.00
2023-03-16T20:59:51.405Z,100.00
2023-03-16T21:02:35.165Z,100.00
2023-03-16T21:05:04.019Z,100.00
2023-03-16T21:07:31.183Z,100.00
2023-03-16T21:09:57.802Z,100.00
2023-03-16T21:12:32.794Z,100.00
2023-03-16T21:15:02.406Z,99.69
2023-03-16T21:17:34.410Z,99.47
2023-03-16T21:20:00.929Z,99.09
2023-03-16T21:22:31.892Z,99.96
2023-03-16T21:24:58.623Z,100.00
2023-03-16T21:27:27.715Z,100.00
2023-03-16T21:29:57.605Z,100.00
2023-03-16T21:32:26.523Z,100.00
2023-03-16T21:34:53.466Z,100.00
2023-03-16T21:37:24.999Z,100.00
2023-03-16T21:39:52.234Z,98.89
2023-03-16T21:42:19.059Z,97.57
2023-03-16T21:44:45.698Z,99.17
2023-03-16T21:47:41.714Z,98.66
2023-03-16T21:50:24.833Z,100.00
2023-03-16T21:52:51.702Z,100.00
2023-03-16T21:55:23.948Z,100.00
2023-03-16T21:57:51.068Z,100.00
2023-03-16T22:00:26.490Z,100.00
2023-03-16T22:02:58.410Z,99.42
2023-03-16T22:05:34.074Z,98.63
2023-03-16T22:08:03.365Z,99.01
2023-03-16T22:10:30.401Z,99.94
2023-03-16T22:12:57.943Z,100.00
2023-03-16T22:15:25.644Z,99.37
2023-03-16T22:17:53.673Z,99.16
2023-03-16T22:20:25.579Z,98.82
2023-03-16T22:22:52.648Z,99.39
2023-03-16T22:25:21.600Z,99.46
2023-03-16T22:27:48.788Z,100.00
2023-03-16T22:30:22.911Z,100.00
2023-03-16T22:32:52.273Z,100.00
2023-03-16T22:35:39.133Z,100.00
2023-03-16T22:38:07.099Z,100.00
2023-03-16T22:40:37.081Z,100.00
2023-03-16T22:43:05.980Z,100.00
2023-03-16T22:45:35.262Z,99.99
2023-03-16T22:48:12.793Z,99.93
2023-03-16T22:50:39.314Z,100.00
2023-03-16T22:53:08.104Z,100.00
2023-03-16T22:55:39.316Z,100.00
2023-03-16T22:58:29.310Z,100.00
2023-03-16T23:00:56.357Z,100.00
2023-03-16T23:03:23.162Z,100.00
2023-03-16T23:05:50.462Z,100.00
2023-03-16T23:08:20.201Z,100.00
2023-03-16T23:10:47.597Z,100.00
2023-03-16T23:13:24.494Z,100.00
2023-03-16T23:15:51.631Z,100.00
2023-03-16T23:18:20.573Z,100.00
2023-03-16T23:20:48.472Z,100.00
2023-03-16T23:23:16.053Z,100.00
2023-03-16T23:25:43.728Z,100.00
2023-03-16T23:28:20.423Z,100.00
2023-03-16T23:30:49.675Z,100.00
2023-03-16T23:33:17.655Z,100.00
2023-03-16T23:35:46.748Z,100.00
2023-03-16T23:38:13.683Z,100.00
2023-03-16T23:40:40.384Z,100.00
2023-03-16T23:43:08.090Z,100.00
2023-03-16T23:45:42.096Z,100.00
2023-03-16T23:48:19.193Z,99.63
2023-03-16T23:50:54.638Z,99.53
2023-03-16T23:53:24.418Z,99.71
2023-03-16T23:55:51.589Z,99.89
2023-03-16T23:58:18.567Z,99.97
